Time;durP1;ratioP1;P1;durP2;ratioP2;P2;SDS_P1;SDS_P2;PMS_P1;PMS_P2;Temp;Humidity;BMP_temperature;BMP_pressure;BME280_temperature;BME280_humidity;BME280_pressure;Samples;Min_cycle;Max_cycle;Signal;HPM_P1;HPM_P2
2022/03/01 00:00:51;;;;;;;14.02;8.38;;;4.00;99.90;;;;;;5041325;28;20036;-86
2022/03/01 00:03:17;;;;;;;15.88;10.15;;;4.10;99.90;;;;;;5043046;28;20025;-88
2022/03/01 00:05:43;;;;;;;19.63;11.52;;;4.10;99.90;;;;;;5062657;28;20080;-86
2022/03/01 00:08:08;;;;;;;15.43;9.35;;;4.20;99.90;;;;;;5043564;28;20031;-87
2022/03/01 00:10:34;;;;;;;15.02;8.75;;;4.30;99.90;;;;;;5056670;28;20029;-86
2022/03/01 00:13:01;;;;;;;13.38;8.48;;;4.20;99.90;;;;;;5066282;28;20021;-87
2022/03/01 00:15:27;;;;;;;12.63;7.85;;;4.20;99.90;;;;;;5047565;28;20057;-87
2022/03/01 00:17:52;;;;;;;14.95;8.98;;;4.10;99.90;;;;;;5052162;28;20032;-88
2022/03/01 00:20:19;;;;;;;22.35;11.45;;;4.00;99.90;;;;;;5057102;28;20037;-87
2022/03/01 00:22:45;;;;;;;18.55;10.40;;;4.00;99.90;;;;;;5055767;28;20029;-88
2022/03/01 00:25:12;;;;;;;18.67;10.35;;;4.20;99.90;;;;;;5067039;28;20115;-87
2022/03/01 00:27:41;;;;;;;12.77;8.57;;;4.10;99.90;;;;;;5066659;28;20131;-88
2022/03/01 00:30:08;;;;;;;12.98;8.32;;;4.10;99.90;;;;;;5046078;28;20079;-87
2022/03/01 00:32:34;;;;;;;14.98;7.88;;;4.00;99.90;;;;;;5029444;28;20072;-87
2022/03/01 00:34:59;;;;;;;13.93;8.80;;;3.80;99.90;;;;;;5060791;28;20022;-86
2022/03/01 00:37:25;;;;;;;14.88;7.65;;;3.70;99.90;;;;;;5045769;28;20368;-86
2022/03/01 00:39:50;;;;;;;13.68;7.85;;;3.60;99.90;;;;;;5054130;28;20051;-87
2022/03/01 00:42:18;;;;;;;13.98;7.55;;;3.50;99.90;;;;;;5040390;28;20092;-86
2022/03/01 00:44:45;;;;;;;13.07;7.75;;;3.50;99.90;;;;;;5048601;28;20021;-88
2022/03/01 00:47:18;;;;;;;13.80;7.80;;;3.40;99.90;;;;;;5054794;28;20395;-86
2022/03/01 00:49:45;;;;;;;11.82;7.35;;;3.40;99.90;;;;;;5040787;28;20049;-87
2022/03/01 00:52:15;;;;;;;14.38;7.97;;;3.30;99.90;;;;;;5058419;28;20293;-87
2022/03/01 00:54:42;;;;;;;13.43;7.75;;;3.30;99.90;;;;;;5041488;28;20026;-86
2022/03/01 00:57:07;;;;;;;13.32;7.85;;;3.20;99.90;;;;;;5040265;28;20049;-86
2022/03/01 00:59:34;;;;;;;12.27;7.22;;;3.10;99.90;;;;;;5041792;28;20037;-86
2022/03/01 01:02:03;;;;;;;13.38;7.88;;;3.10;99.90;;;;;;5041316;28;20064;-87
2022/03/01 01:04:29;;;;;;;14.60;8.10;;;3.00;99.90;;;;;;5029200;28;20038;-87
2022/03/01 01:06:55;;;;;;;17.05;9.30;;;3.00;99.90;;;;;;5057412;28;20553;-87
2022/03/01 01:09:21;;;;;;;16.60;10.57;;;3.10;99.90;;;;;;5047171;28;20035;-86
2022/03/01 01:11:47;;;;;;;20.92;11.52;;;3.20;99.90;;;;;;5048913;28;20029;-87
2022/03/01 01:14:13;;;;;;;23.00;12.38;;;3.30;99.90;;;;;;5052732;28;20032;-90
2022/03/01 01:16:39;;;;;;;20.95;12.38;;;3.40;99.90;;;;;;5056959;28;20010;-88
2022/03/01 01:19:05;;;;;;;22.45;12.18;;;3.50;99.90;;;;;;5052195;28;20140;-86
2022/03/01 01:22:39;;;;;;;22.27;13.73;;;3.50;99.90;;;;;;5047680;28;20064;-88
2022/03/01 01:24:16;;;;;;;20.92;12.43;;;3.50;99.90;;;;;;5044929;28;20040;-88
2022/03/01 01:26:43;;;;;;;18.90;12.25;;;3.60;99.90;;;;;;5056775;28;20020;-89
2022/03/01 01:29:08;;;;;;;20.67;11.10;;;3.50;99.90;;;;;;5037571;28;20049;-90
2022/03/01 01:31:34;;;;;;;17.33;10.60;;;3.50;99.90;;;;;;5041147;28;20110;-88
2022/03/01 01:34:00;;;;;;;16.48;9.98;;;3.40;99.90;;;;;;5033932;28;20025;-86
2022/03/01 01:36:26;;;;;;;16.35;9.15;;;3.40;99.90;;;;;;5038683;28;20040;-86
2022/03/01 01:38:55;;;;;;;16.08;8.73;;;3.30;99.90;;;;;;5055306;28;20029;-89
2022/03/01 01:41:21;;;;;;;14.75;7.93;;;3.30;99.90;;;;;;5033151;28;20021;-88
2022/03/01 01:43:46;;;;;;;12.70;8.15;;;3.20;99.90;;;;;;5044303;28;20071;-88
2022/03/01 01:46:12;;;;;;;12.80;8.07;;;3.10;99.90;;;;;;5037544;28;20017;-87
2022/03/01 01:48:38;;;;;;;13.27;8.65;;;3.10;99.90;;;;;;5053817;28;20036;-85
2022/03/01 01:51:04;;;;;;;14.63;8.68;;;3.00;99.90;;;;;;5044424;28;20029;-84
2022/03/01 01:53:29;;;;;;;14.70;7.88;;;2.90;99.90;;;;;;5053200;28;20053;-86
2022/03/01 01:55:55;;;;;;;15.02;8.07;;;2.90;99.90;;;;;;5052640;28;20029;-86
2022/03/01 01:58:21;;;;;;;14.90;7.88;;;2.80;99.90;;;;;;5045498;28;20073;-83
2022/03/01 02:00:46;;;;;;;12.30;6.88;;;2.70;99.90;;;;;;5057903;28;20040;-86
2022/03/01 02:03:12;;;;;;;16.25;8.32;;;2.70;99.90;;;;;;5046528;28;20546;-87
2022/03/01 02:05:37;;;;;;;13.45;8.85;;;2.60;99.90;;;;;;5050072;28;20026;-86
2022/03/01 02:08:04;;;;;;;12.45;7.32;;;2.50;99.90;;;;;;5053831;28;20033;-87
2022/03/01 02:10:31;;;;;;;14.48;8.40;;;2.50;99.90;;;;;;5043574;28;20414;-87
2022/03/01 02:12:57;;;;;;;13.43;8.07;;;2.40;99.90;;;;;;5040390;28;20029;-88
2022/03/01 02:15:23;;;;;;;15.00;8.20;;;2.40;99.90;;;;;;5047434;28;20064;-86
2022/03/01 02:17:49;;;;;;;14.05;7.80;;;2.30;99.90;;;;;;5059730;28;20088;-88
2022/03/01 02:20:15;;;;;;;15.63;7.90;;;2.30;99.90;;;;;;5041380;28;20049;-88
2022/03/01 02:22:40;;;;;;;13.35;7.53;;;2.20;99.90;;;;;;5075147;28;20502;-89
2022/03/01 02:25:07;;;;;;;14.25;7.90;;;2.20;99.90;;;;;;5058129;28;20021;-86
2022/03/01 02:27:33;;;;;;;13.52;8.07;;;2.20;99.90;;;;;;5053130;28;20132;-86
2022/03/01 02:29:59;;;;;;;13.15;8.10;;;2.20;99.90;;;;;;5061943;28;20052;-87
2022/03/01 02:32:24;;;;;;;12.52;7.82;;;2.20;99.90;;;;;;5043676;28;20069;-88
2022/03/01 02:34:50;;;;;;;14.48;8.98;;;2.20;99.90;;;;;;5043979;28;20550;-90
2022/03/01 02:37:16;;;;;;;13.45;7.85;;;2.20;99.90;;;;;;5061896;28;20066;-88
2022/03/01 02:39:42;;;;;;;12.95;7.30;;;2.10;99.90;;;;;;5055516;28;20099;-90
2022/03/01 02:42:08;;;;;;;12.55;7.47;;;2.10;99.90;;;;;;5039411;28;20463;-90
2022/03/01 02:44:33;;;;;;;14.68;7.88;;;2.10;99.90;;;;;;5052146;28;20025;-90
2022/03/01 02:47:01;;;;;;;11.80;8.15;;;2.10;99.90;;;;;;5041952;28;20028;-86
2022/03/01 02:49:28;;;;;;;12.52;8.10;;;2.10;99.90;;;;;;5063318;28;20122;-86
2022/03/01 02:51:55;;;;;;;13.95;8.55;;;2.10;99.90;;;;;;5064908;28;20025;-86
2022/03/01 02:54:23;;;;;;;13.68;8.52;;;2.10;99.90;;;;;;5046944;28;20025;-85
2022/03/01 02:56:50;;;;;;;13.15;7.80;;;2.10;99.90;;;;;;5030878;28;20028;-85
2022/03/01 02:59:16;;;;;;;12.70;7.68;;;2.00;99.90;;;;;;5062430;28;20067;-84
2022/03/01 03:01:41;;;;;;;12.40;8.02;;;2.00;99.90;;;;;;5034377;28;20033;-86
2022/03/01 03:04:07;;;;;;;12.45;7.25;;;1.90;99.90;;;;;;5043776;28;20029;-85
2022/03/01 03:06:33;;;;;;;10.68;7.50;;;1.90;99.90;;;;;;5041733;28;20040;-87
2022/03/01 03:08:58;;;;;;;11.68;7.65;;;1.90;99.90;;;;;;5054389;28;20037;-87
2022/03/01 03:11:24;;;;;;;11.82;7.47;;;1.90;99.90;;;;;;5049139;28;20383;-88
2022/03/01 03:13:52;;;;;;;12.48;8.07;;;1.90;99.90;;;;;;5049988;28;20045;-88
2022/03/01 03:16:18;;;;;;;13.30;7.55;;;2.00;99.90;;;;;;5140088;23;20065;-91
2022/03/01 03:18:44;;;;;;;12.77;7.50;;;2.00;99.90;;;;;;5020597;28;20059;-90
2022/03/01 03:21:10;;;;;;;12.18;7.55;;;2.00;99.90;;;;;;5061230;28;20033;-88
2022/03/01 03:23:37;;;;;;;14.65;7.80;;;2.10;99.90;;;;;;5048253;28;20029;-87
2022/03/01 03:26:02;;;;;;;13.05;8.23;;;2.00;99.90;;;;;;5030749;28;20022;-86
2022/03/01 03:28:28;;;;;;;10.55;6.88;;;2.00;99.90;;;;;;5028512;28;20022;-88
2022/03/01 03:30:55;;;;;;;12.30;8.32;;;2.10;99.90;;;;;;5028720;28;20013;-87
2022/03/01 03:33:21;;;;;;;11.82;7.80;;;2.10;99.90;;;;;;5031189;28;20067;-87
2022/03/01 03:35:46;;;;;;;11.00;7.32;;;2.10;99.90;;;;;;5031799;28;20029;-87
2022/03/01 03:38:12;;;;;;;14.15;8.20;;;2.20;99.90;;;;;;5030571;28;20029;-87
2022/03/01 03:40:38;;;;;;;13.73;8.25;;;2.20;99.90;;;;;;5050123;28;20024;-88
2022/03/01 03:43:05;;;;;;;11.82;7.97;;;2.20;99.90;;;;;;5051924;28;20017;-87
2022/03/01 03:45:31;;;;;;;13.13;8.57;;;2.20;99.90;;;;;;5031213;28;20045;-87
2022/03/01 03:47:56;;;;;;;11.98;7.53;;;2.10;99.90;;;;;;5030841;28;20029;-86
2022/03/01 03:50:23;;;;;;;13.50;8.00;;;2.20;99.90;;;;;;5030790;28;20025;-86
2022/03/01 03:52:49;;;;;;;13.05;8.02;;;2.20;99.90;;;;;;5047277;28;20025;-90
2022/03/01 03:55:15;;;;;;;13.00;7.50;;;2.10;99.90;;;;;;5026121;28;20052;-86
2022/03/01 03:57:41;;;;;;;12.40;7.45;;;2.10;99.90;;;;;;5028453;28;20325;-86
2022/03/01 04:00:09;;;;;;;12.35;7.78;;;2.10;99.90;;;;;;5029432;28;20029;-87
2022/03/01 04:02:35;;;;;;;12.48;7.70;;;2.20;99.90;;;;;;5047804;28;20122;-86
2022/03/01 04:05:02;;;;;;;12.63;8.07;;;2.10;99.90;;;;;;5046322;28;20033;-86
2022/03/01 04:07:29;;;;;;;15.82;7.97;;;2.20;99.90;;;;;;5030264;28;20081;-86
2022/03/01 04:09:55;;;;;;;12.65;7.95;;;2.20;99.90;;;;;;5030332;28;20048;-87
2022/03/01 04:12:21;;;;;;;12.23;7.05;;;2.20;99.90;;;;;;5013045;28;20033;-87
2022/03/01 04:14:46;;;;;;;12.85;8.43;;;2.20;99.90;;;;;;5046925;28;20200;-86
2022/03/01 04:17:12;;;;;;;11.55;7.43;;;2.20;99.90;;;;;;5030087;28;20044;-86
2022/03/01 04:19:38;;;;;;;12.40;7.50;;;2.20;99.90;;;;;;5047682;28;20506;-86
2022/03/01 04:22:04;;;;;;;11.95;7.95;;;2.30;99.90;;;;;;5047894;28;20029;-87
2022/03/01 04:24:32;;;;;;;13.73;7.38;;;2.30;99.90;;;;;;5030321;28;20029;-86
2022/03/01 04:26:57;;;;;;;14.77;8.00;;;2.30;99.90;;;;;;5029985;28;20502;-86
2022/03/01 04:29:24;;;;;;;11.57;7.32;;;2.40;99.90;;;;;;5029006;28;20034;-86
2022/03/01 04:31:50;;;;;;;14.30;7.97;;;2.30;99.90;;;;;;5028620;28;20033;-88
2022/03/01 04:34:16;;;;;;;12.80;7.65;;;2.30;99.90;;;;;;5029138;28;20037;-86
2022/03/01 04:36:42;;;;;;;11.15;7.35;;;2.30;99.90;;;;;;5029141;28;20381;-86
2022/03/01 04:39:07;;;;;;;14.02;7.82;;;2.30;99.90;;;;;;5046693;28;20087;-87
2022/03/01 04:41:33;;;;;;;13.57;7.70;;;2.30;99.90;;;;;;5029443;28;20022;-86
2022/03/01 04:43:58;;;;;;;11.52;7.13;;;2.30;99.90;;;;;;5028620;28;20032;-86
2022/03/01 04:46:24;;;;;;;12.73;7.55;;;2.30;99.90;;;;;;5029239;28;20021;-88
2022/03/01 04:48:50;;;;;;;11.52;7.93;;;2.20;99.90;;;;;;5029107;28;20125;-86
2022/03/01 04:51:21;;;;;;;10.57;6.65;;;2.20;99.90;;;;;;5047124;28;20029;-86
2022/03/01 04:53:48;;;;;;;12.35;7.93;;;2.20;99.90;;;;;;5046822;28;20093;-86
2022/03/01 04:56:13;;;;;;;10.35;6.93;;;2.20;99.90;;;;;;5029056;28;20032;-86
2022/03/01 04:58:39;;;;;;;12.95;7.72;;;2.20;99.90;;;;;;5046073;28;20036;-86
2022/03/01 05:01:06;;;;;;;12.65;7.45;;;2.20;99.90;;;;;;5028482;28;20060;-88
2022/03/01 05:03:39;;;;;;;11.93;7.35;;;2.20;99.90;;;;;;5029249;28;20010;-86
2022/03/01 05:06:05;;;;;;;11.48;7.57;;;2.30;99.90;;;;;;5013104;28;20065;-87
2022/03/01 05:08:31;;;;;;;12.07;8.15;;;2.30;99.90;;;;;;5028457;28;20057;-86
2022/03/01 05:11:03;;;;;;;11.40;7.07;;;2.30;99.90;;;;;;5028675;28;20037;-87
2022/03/01 05:13:29;;;;;;;12.27;7.03;;;2.30;99.90;;;;;;5028738;28;20044;-87
2022/03/01 05:15:55;;;;;;;12.63;7.82;;;2.40;99.90;;;;;;5028303;28;20057;-86
2022/03/01 05:18:21;;;;;;;10.48;6.93;;;2.40;99.90;;;;;;5028399;28;20032;-86
2022/03/01 05:20:49;;;;;;;12.07;7.93;;;2.40;99.90;;;;;;5011918;28;20049;-87
2022/03/01 05:44:55;;;;;;;10.55;6.32;;;2.40;99.90;;;;;;4620521;22;20084;-89
2022/03/01 05:47:21;;;;;;;11.68;7.13;;;2.30;99.90;;;;;;5038390;28;20084;-86
2022/03/01 05:49:47;;;;;;;10.10;6.25;;;2.30;99.90;;;;;;5023679;28;20040;-86
2022/03/01 05:52:13;;;;;;;10.75;6.65;;;2.30;99.90;;;;;;5016926;28;20037;-88
2022/03/01 05:54:39;;;;;;;10.93;6.72;;;2.30;99.90;;;;;;5032498;28;20045;-87
2022/03/01 05:57:04;;;;;;;12.13;7.45;;;2.30;99.90;;;;;;5013746;28;20487;-89
2022/03/01 05:59:30;;;;;;;10.90;6.90;;;2.30;99.90;;;;;;5014050;28;20057;-89
2022/03/01 06:01:56;;;;;;;15.45;8.35;;;2.30;99.90;;;;;;5012713;28;20085;-89
2022/03/01 06:04:22;;;;;;;14.75;9.05;;;2.30;99.90;;;;;;5014048;28;20212;-90
2022/03/01 06:06:47;;;;;;;16.77;9.30;;;2.40;99.90;;;;;;5012745;28;20036;-89
2022/03/01 06:09:13;;;;;;;14.27;9.15;;;2.50;99.90;;;;;;5012655;28;20120;-88
2022/03/01 06:11:38;;;;;;;14.10;8.63;;;2.50;99.90;;;;;;5028415;28;20034;-89
2022/03/01 06:14:05;;;;;;;16.10;8.77;;;2.60;99.90;;;;;;5015245;28;20037;-87
2022/03/01 06:16:30;;;;;;;13.77;8.57;;;2.70;99.90;;;;;;5037359;28;20022;-87
2022/03/01 06:18:56;;;;;;;13.82;8.35;;;2.70;99.90;;;;;;5047836;28;20114;-89
2022/03/01 06:21:22;;;;;;;13.63;8.25;;;2.70;99.90;;;;;;5071997;28;20033;-87
2022/03/01 06:23:48;;;;;;;15.82;9.30;;;2.70;99.90;;;;;;5055156;28;20067;-89
2022/03/01 06:26:14;;;;;;;21.38;12.52;;;2.70;99.90;;;;;;5073449;28;20025;-88
2022/03/01 06:28:40;;;;;;;17.58;11.95;;;2.70;99.90;;;;;;5056583;28;20032;-89
2022/03/01 06:31:05;;;;;;;17.95;11.85;;;2.70;99.90;;;;;;5059489;28;20029;-87
2022/03/01 06:33:31;;;;;;;24.50;14.05;;;2.80;99.90;;;;;;5059280;28;20029;-85
2022/03/01 06:35:57;;;;;;;23.13;13.65;;;2.80;99.90;;;;;;5060821;28;20409;-88
2022/03/01 06:38:26;;;;;;;23.05;13.32;;;2.80;99.90;;;;;;5082288;28;20047;-85
2022/03/01 06:40:56;;;;;;;20.95;12.90;;;2.70;99.90;;;;;;5047079;28;20438;-86
2022/03/01 06:43:29;;;;;;;19.30;11.30;;;2.80;99.90;;;;;;5065204;28;20037;-89
2022/03/01 06:45:55;;;;;;;18.13;11.65;;;2.80;99.90;;;;;;5061456;28;20398;-87
2022/03/01 06:48:20;;;;;;;21.33;11.95;;;2.70;99.90;;;;;;5050386;28;20033;-88
2022/03/01 06:50:46;;;;;;;17.25;10.35;;;2.70;99.90;;;;;;5055296;28;20425;-90
2022/03/01 06:53:13;;;;;;;19.10;11.02;;;2.70;99.90;;;;;;5039942;28;20051;-89
2022/03/01 06:55:40;;;;;;;18.23;11.15;;;2.70;99.90;;;;;;5060399;28;20094;-85
2022/03/01 06:58:06;;;;;;;19.77;11.43;;;2.70;99.90;;;;;;5062787;28;20038;-87
2022/03/01 07:00:32;;;;;;;19.15;12.25;;;2.70;99.90;;;;;;5076404;28;20052;-86
2022/03/01 07:02:58;;;;;;;24.77;13.48;;;2.70;99.90;;;;;;5061894;28;20490;-87
2022/03/01 07:05:25;;;;;;;24.00;13.73;;;2.80;99.90;;;;;;5081730;28;20033;-84
2022/03/01 07:07:50;;;;;;;20.70;13.45;;;2.80;99.90;;;;;;5070488;28;20116;-84
2022/03/01 07:10:16;;;;;;;18.08;12.25;;;2.90;99.90;;;;;;5051890;28;20550;-88
2022/03/01 07:12:43;;;;;;;17.85;12.00;;;3.00;99.90;;;;;;5068579;28;20029;-85
2022/03/01 07:15:10;;;;;;;20.17;12.95;;;3.00;99.90;;;;;;5071409;28;20058;-85
2022/03/01 07:17:36;;;;;;;20.35;12.52;;;3.10;99.90;;;;;;5070338;28;20509;-85
2022/03/01 07:20:03;;;;;;;18.23;12.20;;;3.10;99.90;;;;;;5088154;28;20040;-83
2022/03/01 07:22:28;;;;;;;17.27;11.63;;;3.30;99.90;;;;;;5088037;28;20029;-84
2022/03/01 07:24:54;;;;;;;19.02;11.85;;;3.30;99.90;;;;;;5087546;28;20039;-85
2022/03/01 07:27:19;;;;;;;20.17;13.00;;;3.40;99.90;;;;;;5087062;28;20045;-86
2022/03/01 07:29:45;;;;;;;16.17;11.13;;;3.50;99.90;;;;;;5051399;28;20043;-86
2022/03/01 07:32:10;;;;;;;17.33;10.60;;;3.60;99.90;;;;;;5052482;28;20036;-84
2022/03/01 07:34:37;;;;;;;18.92;11.05;;;3.60;99.90;;;;;;5068434;28;20071;-86
2022/03/01 07:37:04;;;;;;;20.63;13.15;;;3.70;99.90;;;;;;5066957;28;20029;-90
2022/03/01 07:39:29;;;;;;;20.08;12.07;;;3.80;99.90;;;;;;5077921;28;20041;-88
2022/03/01 07:41:55;;;;;;;20.98;13.10;;;3.80;99.90;;;;;;5081720;28;20031;-89
2022/03/01 07:44:21;;;;;;;18.95;11.80;;;3.90;99.90;;;;;;5058226;28;20414;-87
2022/03/01 07:46:47;;;;;;;16.98;11.70;;;4.00;99.90;;;;;;5059660;28;20039;-90
2022/03/01 07:49:13;;;;;;;17.05;11.00;;;4.10;99.90;;;;;;5060019;28;20433;-89
2022/03/01 07:51:38;;;;;;;18.13;11.35;;;4.10;99.90;;;;;;5053524;28;20021;-88
2022/03/01 07:54:04;;;;;;;18.05;10.88;;;4.20;99.90;;;;;;5055820;28;20033;-88
2022/03/01 07:56:30;;;;;;;17.00;11.13;;;4.30;99.90;;;;;;5058708;28;20033;-90
2022/03/01 07:58:56;;;;;;;18.17;12.88;;;4.30;99.90;;;;;;5057895;28;20040;-90
2022/03/01 08:01:22;;;;;;;16.65;10.35;;;4.40;99.90;;;;;;5058052;28;20063;-91
2022/03/01 08:03:48;;;;;;;13.80;9.55;;;4.40;99.90;;;;;;5057917;28;20068;-90
2022/03/01 08:06:15;;;;;;;19.10;11.70;;;4.50;99.90;;;;;;5075039;28;20067;-88
2022/03/01 08:08:41;;;;;;;20.52;12.48;;;4.50;99.90;;;;;;5076869;28;20055;-89
2022/03/01 08:11:06;;;;;;;18.00;11.68;;;4.50;99.90;;;;;;5064855;28;20024;-86
2022/03/01 08:13:33;;;;;;;20.23;13.48;;;4.50;99.90;;;;;;5066827;28;20443;-86
2022/03/01 08:15:59;;;;;;;18.55;11.70;;;4.60;99.90;;;;;;5049936;28;20083;-87
2022/03/01 08:18:26;;;;;;;16.50;11.20;;;4.50;99.90;;;;;;5081794;28;20060;-88
2022/03/01 08:20:52;;;;;;;25.92;11.43;;;4.50;99.90;;;;;;5067396;28;20037;-88
2022/03/01 08:23:18;;;;;;;24.88;12.05;;;4.50;99.90;;;;;;5078376;28;20044;-88
2022/03/01 08:25:44;;;;;;;20.00;13.02;;;4.50;99.90;;;;;;5057234;28;20132;-87
2022/03/01 08:28:13;;;;;;;20.50;13.07;;;4.50;99.90;;;;;;5060621;28;20497;-86
2022/03/01 08:30:39;;;;;;;24.00;12.63;;;4.60;99.90;;;;;;5059593;28;20047;-88
2022/03/01 08:33:05;;;;;;;20.70;13.00;;;4.60;99.90;;;;;;5057251;28;20029;-88
2022/03/01 08:35:34;;;;;;;22.92;13.50;;;4.80;99.90;;;;;;5074541;28;20021;-88
2022/03/01 08:38:05;;;;;;;21.13;12.80;;;4.90;99.90;;;;;;5058760;28;20025;-88
2022/03/01 08:40:33;;;;;;;19.27;11.45;;;5.00;99.90;;;;;;5071462;28;20087;-90
2022/03/01 08:42:59;;;;;;;18.17;12.38;;;5.00;99.90;;;;;;5046527;28;20033;-90
2022/03/01 08:45:26;;;;;;;18.58;11.95;;;5.10;99.90;;;;;;5069659;28;20086;-89
2022/03/01 08:47:52;;;;;;;15.77;11.32;;;5.20;99.90;;;;;;5087146;28;20047;-86
2022/03/01 08:50:19;;;;;;;15.98;11.02;;;5.20;99.90;;;;;;5085721;28;20029;-87
2022/03/01 08:52:45;;;;;;;17.00;12.07;;;5.20;99.90;;;;;;5060287;28;20042;-89
2022/03/01 08:55:12;;;;;;;13.20;9.35;;;5.30;99.90;;;;;;5064238;28;20054;-89
2022/03/01 08:57:39;;;;;;;14.65;9.05;;;5.30;99.90;;;;;;5064901;28;20052;-90
2022/03/01 09:00:08;;;;;;;16.80;9.88;;;5.40;99.90;;;;;;5080964;28;20045;-93
2022/03/01 09:02:34;;;;;;;11.43;8.07;;;5.50;99.90;;;;;;5066696;28;20020;-88
2022/03/01 09:04:59;;;;;;;15.70;8.88;;;5.60;99.90;;;;;;5056335;28;20048;-90
2022/03/01 09:07:26;;;;;;;17.33;11.23;;;5.70;99.90;;;;;;5068323;28;20055;-88
2022/03/01 09:09:52;;;;;;;17.60;12.43;;;5.80;99.90;;;;;;5086595;28;20028;-88
2022/03/01 09:12:19;;;;;;;17.35;11.70;;;5.80;99.90;;;;;;5068655;28;20056;-90
2022/03/01 09:14:45;;;;;;;15.35;10.15;;;5.80;99.90;;;;;;5068109;28;20063;-89
2022/03/01 09:17:12;;;;;;;17.50;11.30;;;5.90;99.90;;;;;;5066590;28;20490;-89
2022/03/01 09:19:38;;;;;;;14.27;10.07;;;6.00;99.90;;;;;;5063672;28;20078;-90
2022/03/01 09:22:05;;;;;;;19.55;10.15;;;6.10;99.90;;;;;;5066256;28;20029;-89
2022/03/01 09:24:30;;;;;;;12.40;9.07;;;6.20;99.90;;;;;;5060185;28;20505;-92
2022/03/01 09:27:00;;;;;;;16.17;9.68;;;6.30;99.90;;;;;;5061341;28;20021;-91
2022/03/01 09:29:28;;;;;;;16.33;10.30;;;6.40;99.90;;;;;;5059815;28;20028;-92
2022/03/01 09:31:54;;;;;;;15.43;10.70;;;6.50;99.90;;;;;;5058157;28;20016;-91
2022/03/01 09:34:19;;;;;;;18.58;12.07;;;6.40;99.90;;;;;;5059894;28;20036;-90
2022/03/01 09:36:45;;;;;;;17.48;12.43;;;6.50;99.90;;;;;;5056741;28;20467;-89
2022/03/01 09:39:10;;;;;;;17.10;11.23;;;6.50;99.90;;;;;;5062564;28;20047;-89
2022/03/01 09:41:39;;;;;;;16.23;11.57;;;6.50;99.90;;;;;;5064347;28;20033;-90
2022/03/01 09:44:05;;;;;;;20.90;13.35;;;6.50;99.90;;;;;;5064748;28;20071;-91
2022/03/01 09:46:31;;;;;;;18.52;12.63;;;6.40;99.90;;;;;;5060605;28;20041;-90
2022/03/01 09:48:58;;;;;;;22.40;13.77;;;6.30;99.90;;;;;;5062193;28;20559;-91
2022/03/01 09:51:26;;;;;;;17.45;11.27;;;6.30;99.90;;;;;;5063200;28;20039;-93
2022/03/01 09:53:53;;;;;;;21.58;12.95;;;6.40;99.90;;;;;;5070076;28;20037;-90
2022/03/01 09:56:19;;;;;;;20.77;12.25;;;6.50;99.90;;;;;;5066406;28;20036;-89
2022/03/01 09:58:46;;;;;;;18.90;12.90;;;6.60;99.90;;;;;;5065245;28;20154;-89
2022/03/01 10:01:14;;;;;;;16.50;12.20;;;6.70;99.90;;;;;;5060278;28;20052;-89
2022/03/01 10:03:40;;;;;;;14.73;10.77;;;7.00;99.90;;;;;;5057044;28;20057;-93
2022/03/01 10:06:11;;;;;;;17.27;11.40;;;7.50;99.90;;;;;;5059042;28;20029;-93
2022/03/01 10:08:37;;;;;;;16.67;11.25;;;8.20;99.90;;;;;;5058458;28;20075;-92
2022/03/01 10:11:04;;;;;;;14.73;11.55;;;8.90;99.90;;;;;;5057137;28;20033;-92
2022/03/01 10:13:32;;;;;;;16.63;11.63;;;9.60;99.90;;;;;;5057985;28;20041;-91
2022/03/01 10:16:16;;;;;;;15.35;10.18;;;10.30;99.90;;;;;;5042642;28;20067;-91
2022/03/01 10:18:51;;;;;;;17.63;11.45;;;10.90;99.90;;;;;;5049969;28;20040;-92
2022/03/01 10:21:19;;;;;;;14.25;10.27;;;11.70;99.90;;;;;;5057860;28;20408;-93
2022/03/01 10:23:48;;;;;;;13.35;10.02;;;12.30;99.90;;;;;;5058440;28;20048;-94
2022/03/01 10:26:16;;;;;;;16.65;10.90;;;12.80;99.90;;;;;;5064373;28;20445;-93
2022/03/01 10:28:43;;;;;;;15.60;11.85;;;12.90;99.90;;;;;;5065222;28;20025;-91
2022/03/01 10:31:10;;;;;;;13.40;10.68;;;12.60;99.90;;;;;;5061749;28;20047;-92
2022/03/01 10:33:37;;;;;;;15.50;10.70;;;12.00;99.90;;;;;;5059249;28;20029;-92
2022/03/01 10:36:03;;;;;;;12.10;9.32;;;11.50;99.90;;;;;;5060288;28;20033;-90
2022/03/01 10:38:28;;;;;;;12.02;8.88;;;11.10;99.90;;;;;;5059517;28;20581;-94
2022/03/01 10:40:59;;;;;;;13.20;8.98;;;10.90;99.90;;;;;;5050402;28;20042;-91
2022/03/01 10:43:26;;;;;;;16.42;9.73;;;10.70;99.90;;;;;;5060823;28;20452;-91
2022/03/01 10:45:53;;;;;;;13.07;10.02;;;10.70;99.90;;;;;;5061211;28;20036;-92
2022/03/01 10:48:37;;;;;;;14.30;9.95;;;10.70;99.90;;;;;;5060712;28;20075;-92
2022/03/01 10:51:08;;;;;;;;;;;10.80;99.90;;;;;;5060598;28;20040;-91
2022/03/01 10:53:45;;;;;;;13.32;8.98;;;10.90;99.90;;;;;;5060162;28;19904;-91
2022/03/01 10:56:12;;;;;;;11.88;8.98;;;11.10;99.90;;;;;;5070193;28;20086;-93
2022/03/01 10:58:42;;;;;;;12.50;9.50;;;11.20;99.90;;;;;;5070017;28;20052;-92
2022/03/01 11:01:09;;;;;;;13.45;9.48;;;11.30;99.90;;;;;;5088499;28;20037;-89
2022/03/01 11:03:36;;;;;;;14.98;10.68;;;11.30;99.90;;;;;;5088829;28;20028;-91
2022/03/01 11:06:02;;;;;;;13.80;10.55;;;11.20;99.90;;;;;;5071977;28;20109;-91
2022/03/01 11:08:38;;;;;;;13.90;10.10;;;11.20;99.90;;;;;;5066687;28;20037;-93
2022/03/01 11:11:06;;;;;;;13.57;9.38;;;11.20;99.90;;;;;;5085637;28;20054;-94
2022/03/01 11:13:38;;;;;;;13.45;10.18;;;11.30;99.90;;;;;;5082178;28;20177;-92
2022/03/01 11:16:37;;;;;;;16.63;10.35;;;11.50;99.90;;;;;;5081122;28;20056;-92
2022/03/01 11:19:18;;;;;;;13.75;9.40;;;11.70;99.90;;;;;;5062070;28;20045;-91
2022/03/01 11:21:47;;;;;;;16.25;12.52;;;11.90;99.90;;;;;;5061352;28;20043;-94
2022/03/01 11:24:17;;;;;;;15.10;11.50;;;12.00;99.90;;;;;;5079050;28;20024;-93
2022/03/01 11:26:43;;;;;;;13.68;9.32;;;12.10;99.90;;;;;;5060195;28;20039;-93
2022/03/01 11:29:12;;;;;;;12.68;9.40;;;12.20;99.90;;;;;;5039529;28;20037;-89
2022/03/01 11:31:39;;;;;;;9.50;7.70;;;12.20;99.90;;;;;;5053912;28;20131;-91
2022/03/01 11:34:16;;;;;;;9.90;7.45;;;12.10;99.90;;;;;;5066714;28;20028;-90
2022/03/01 11:36:53;;;;;;;12.57;8.50;;;12.10;99.90;;;;;;5057453;28;20071;-91
2022/03/01 11:39:38;;;;;;;13.18;9.50;;;12.00;99.90;;;;;;5064844;28;20086;-93
2022/03/01 11:42:14;;;;;;;15.73;10.63;;;11.80;99.90;;;;;;5067453;28;20005;-87
2022/03/01 11:44:41;;;;;;;15.30;11.02;;;11.60;99.90;;;;;;5064138;28;20502;-88
2022/03/01 11:47:09;;;;;;;19.48;11.50;;;11.40;99.90;;;;;;5058173;28;20478;-90
2022/03/01 11:49:38;;;;;;;16.50;11.85;;;11.10;99.90;;;;;;5058526;28;20024;-90
2022/03/01 11:52:04;;;;;;;12.13;10.07;;;10.90;99.90;;;;;;5064388;28;20031;-92
2022/03/01 11:54:36;;;;;;;12.05;8.57;;;10.80;99.90;;;;;;5065041;28;20043;-92
2022/03/01 11:57:05;;;;;;;15.35;10.13;;;10.80;99.90;;;;;;5066472;28;20029;-89
2022/03/01 11:59:31;;;;;;;15.38;11.68;;;11.00;99.90;;;;;;5062835;28;20168;-90
2022/03/01 12:01:58;;;;;;;14.35;10.90;;;11.00;99.90;;;;;;5063747;28;20051;-91
2022/03/01 12:04:27;;;;;;;14.27;10.60;;;11.00;99.90;;;;;;5067395;28;20029;-90
2022/03/01 12:06:55;;;;;;;13.70;9.95;;;11.00;99.90;;;;;;5068124;28;20036;-91
2022/03/01 12:09:26;;;;;;;12.68;9.68;;;11.00;99.90;;;;;;5067494;28;20028;-92
2022/03/01 12:12:11;;;;;;;17.13;11.73;;;11.10;99.90;;;;;;5064025;28;20028;-91
2022/03/01 12:14:38;;;;;;;17.70;11.73;;;11.10;99.90;;;;;;5061761;28;20478;-90
2022/03/01 12:17:16;;;;;;;17.70;11.88;;;11.20;99.90;;;;;;5062334;28;20033;-89
2022/03/01 12:19:41;;;;;;;16.88;12.30;;;11.30;99.90;;;;;;5060844;28;20056;-91
2022/03/01 12:22:08;;;;;;;15.32;11.50;;;11.50;99.90;;;;;;5060391;28;20046;-89
2022/03/01 12:24:33;;;;;;;14.13;10.55;;;11.70;99.90;;;;;;5064713;28;20057;-92
2022/03/01 12:27:01;;;;;;;12.95;10.07;;;12.00;99.90;;;;;;5063392;28;20035;-91
2022/03/01 12:29:30;;;;;;;12.55;9.80;;;12.20;99.90;;;;;;5079252;28;20036;-91
2022/03/01 12:31:56;;;;;;;17.45;11.18;;;12.20;99.90;;;;;;5078258;28;20031;-92
2022/03/01 12:34:31;;;;;;;14.07;9.70;;;12.10;99.90;;;;;;5064765;28;20044;-89
2022/03/01 12:37:01;;;;;;;15.18;9.38;;;12.00;99.90;;;;;;5064322;28;20039;-94
2022/03/01 12:39:27;;;;;;;14.30;10.63;;;11.90;99.90;;;;;;5065822;28;20037;-91
2022/03/01 12:41:54;;;;;;;13.45;10.38;;;11.90;99.90;;;;;;5066383;28;20559;-89
2022/03/01 12:44:24;;;;;;;15.35;11.70;;;11.90;99.90;;;;;;5065726;28;20059;-89
2022/03/01 12:46:50;;;;;;;12.05;9.30;;;11.90;99.90;;;;;;5065114;28;20033;-91
2022/03/01 12:49:17;;;;;;;11.60;9.18;;;12.00;99.90;;;;;;5064374;28;20032;-89
2022/03/01 12:51:45;;;;;;;14.48;10.23;;;12.20;99.90;;;;;;5061772;28;20107;-88
2022/03/01 12:54:13;;;;;;;20.30;14.45;;;12.20;99.90;;;;;;5063922;28;20035;-91
2022/03/01 12:56:41;;;;;;;18.73;14.60;;;12.10;99.20;;;;;;5065594;28;20039;-88
2022/03/01 12:59:12;;;;;;;16.60;12.35;;;11.90;98.50;;;;;;5063776;28;20028;-90
2022/03/01 13:01:41;;;;;;;16.00;10.55;;;11.70;99.50;;;;;;5059175;28;20039;-92